createdAt,value
2023-01-26T00:01:48.232Z,-1.46
2023-01-26T00:06:52.215Z,-1.46
2023-01-26T00:11:55.520Z,-1.44
2023-01-26T00:17:02.237Z,-1.45
2023-01-26T00:22:09.300Z,-1.43
2023-01-26T00:27:13.138Z,-1.42
2023-01-26T00:32:14.983Z,-1.43
2023-01-26T00:37:18.919Z,-1.43
2023-01-26T00:42:21.797Z,-1.40
2023-01-26T00:47:23.754Z,-1.38
2023-01-26T00:52:30.760Z,-1.36
2023-01-26T00:57:35.010Z,-1.36
2023-01-26T01:02:37.925Z,-1.33
2023-01-26T01:07:42.276Z,-1.31
2023-01-26T01:12:44.009Z,-1.29
2023-01-26T01:17:48.296Z,-1.26
2023-01-26T01:22:51.478Z,-1.23
2023-01-26T01:27:57.323Z,-1.22
2023-01-26T01:33:06.970Z,-1.18
2023-01-26T01:38:13.513Z,-1.17
2023-01-26T01:43:19.090Z,-1.16
2023-01-26T01:48:35.722Z,-1.14
2023-01-26T01:53:41.749Z,-1.16
2023-01-26T01:58:43.714Z,-1.16
2023-01-26T02:03:51.633Z,-1.16
2023-01-26T02:08:54.931Z,-1.14
2023-01-26T02:14:00.219Z,-1.14
2023-01-26T02:19:04.873Z,-1.12
2023-01-26T02:24:12.399Z,-1.11
2023-01-26T02:29:17.028Z,-1.10
2023-01-26T02:34:21.752Z,-1.11
2023-01-26T02:39:47.341Z,-1.08
2023-01-26T02:44:53.101Z,-1.06
2023-01-26T02:49:55.050Z,-1.05
2023-01-26T02:55:18.351Z,-1.04
2023-01-26T03:00:27.608Z,-1.00
2023-01-26T03:05:30.384Z,-0.98
2023-01-26T03:10:34.491Z,-0.97
2023-01-26T03:15:43.598Z,-0.95
2023-01-26T03:21:10.783Z,-0.94
2023-01-26T03:26:33.735Z,-0.93
2023-01-26T03:31:35.669Z,-0.92
2023-01-26T03:36:38.687Z,-0.90
2023-01-26T03:42:04.035Z,-0.88
2023-01-26T03:47:27.438Z,-0.87
2023-01-26T03:52:52.263Z,-0.85
2023-01-26T03:57:58.273Z,-0.84
2023-01-26T04:03:18.510Z,-0.82
2023-01-26T04:08:29.564Z,-0.80
2023-01-26T04:13:58.574Z,-0.78
2023-01-26T04:19:23.697Z,-0.77
2023-01-26T04:24:26.949Z,-0.76
2023-01-26T04:29:34.891Z,-0.74
2023-01-26T04:34:39.183Z,-0.73
2023-01-26T04:39:49.043Z,-0.72
2023-01-26T04:44:52.637Z,-0.72
2023-01-26T04:49:59.447Z,-0.71
2023-01-26T04:55:04.341Z,-0.70
2023-01-26T05:00:10.651Z,-0.70
2023-01-26T05:05:12.933Z,-0.68
2023-01-26T05:10:15.956Z,-0.68
2023-01-26T05:15:42.352Z,-0.65
2023-01-26T05:20:54.997Z,-0.64
2023-01-26T05:26:07.458Z,-0.60
2023-01-26T05:31:36.642Z,-0.59
2023-01-26T05:36:38.618Z,-0.54
2023-01-26T05:41:40.762Z,-0.54
2023-01-26T05:47:03.157Z,-0.50
2023-01-26T05:52:12.275Z,-0.49
2023-01-26T05:57:19.408Z,-0.46
2023-01-26T06:02:45.890Z,-0.43
2023-01-26T06:07:51.446Z,-0.35
2023-01-26T06:13:00.220Z,-0.28
2023-01-26T06:18:25.695Z,-0.21
2023-01-26T06:23:29.936Z,-0.14
2023-01-26T06:28:36.135Z,-0.07
2023-01-26T06:33:40.821Z,-0.08
2023-01-26T06:38:48.184Z,-0.07
2023-01-26T06:43:55.038Z,-0.02
2023-01-26T06:49:01.575Z,0.05
2023-01-26T06:54:05.907Z,0.14
2023-01-26T06:59:14.620Z,0.11
2023-01-26T07:04:39.212Z,0.15
2023-01-26T07:09:40.946Z,0.13
2023-01-26T07:14:47.530Z,0.14
2023-01-26T07:19:53.841Z,0.30
2023-01-26T07:24:58.903Z,0.93
2023-01-26T07:30:00.774Z,1.09
2023-01-26T07:35:03.606Z,1.85
2023-01-26T07:40:09.960Z,2.17
2023-01-26T07:45:12.090Z,2.50
2023-01-26T07:50:14.270Z,2.69
2023-01-26T07:55:20.103Z,2.88
2023-01-26T08:00:24.098Z,3.02
2023-01-26T08:05:35.487Z,3.17
2023-01-26T08:10:37.489Z,3.20
2023-01-26T08:15:42.084Z,3.33
2023-01-26T08:20:55.833Z,3.38
2023-01-26T08:26:02.342Z,3.49
2023-01-26T08:31:09.089Z,3.59
2023-01-26T08:36:14.883Z,3.61
2023-01-26T08:41:18.817Z,3.68
2023-01-26T08:46:22.750Z,3.62
2023-01-26T08:51:29.283Z,3.59
2023-01-26T08:56:31.300Z,3.49
2023-01-26T09:01:33.216Z,3.48
2023-01-26T09:06:36.099Z,3.46
2023-01-26T09:11:42.034Z,3.40
2023-01-26T09:16:48.997Z,3.42
2023-01-26T09:21:54.277Z,3.40
2023-01-26T09:26:58.380Z,3.48
2023-01-26T09:32:02.360Z,3.64
2023-01-26T09:37:10.352Z,3.89
2023-01-26T09:42:50.757Z,4.02
2023-01-26T09:47:58.694Z,4.15
2023-01-26T09:53:06.785Z,4.29
2023-01-26T09:58:22.948Z,4.46
2023-01-26T10:03:36.726Z,4.61
2023-01-26T10:08:38.758Z,4.79
2023-01-26T10:13:44.881Z,4.88
2023-01-26T10:19:13.287Z,4.99
2023-01-26T10:24:20.572Z,5.08
2023-01-26T10:29:24.653Z,5.20
2023-01-26T10:34:29.460Z,5.31
2023-01-26T10:39:31.415Z,5.36
2023-01-26T10:44:38.620Z,5.47
2023-01-26T10:49:40.617Z,5.58
2023-01-26T10:54:44.896Z,5.69
2023-01-26T11:00:00.836Z,5.78
2023-01-26T11:05:11.399Z,5.91
2023-01-26T11:10:23.387Z,6.08
2023-01-26T11:15:29.651Z,6.13
2023-01-26T11:20:48.362Z,6.28
2023-01-26T11:26:02.170Z,6.38
2023-01-26T11:31:39.398Z,6.52
2023-01-26T11:37:06.245Z,6.78
2023-01-26T11:42:18.484Z,6.93
2023-01-26T11:47:26.637Z,7.28
2023-01-26T11:53:03.427Z,7.23
2023-01-26T11:58:16.231Z,7.04
2023-01-26T12:03:39.413Z,6.86
2023-01-26T12:08:53.337Z,7.09
2023-01-26T12:14:30.475Z,7.14
2023-01-26T12:19:46.700Z,7.11
2023-01-26T12:25:20.870Z,7.19
2023-01-26T12:30:26.468Z,7.17
2023-01-26T12:35:51.353Z,7.09
2023-01-26T12:41:34.755Z,7.17
2023-01-26T12:46:41.091Z,7.12
2023-01-26T12:51:51.286Z,7.03
2023-01-26T12:56:55.968Z,7.07
2023-01-26T13:02:32.543Z,7.35
2023-01-26T13:07:36.846Z,7.50
2023-01-26T13:12:59.299Z,7.33
2023-01-26T13:18:01.704Z,7.26
2023-01-26T13:23:28.988Z,7.20
2023-01-26T13:28:33.159Z,7.05
2023-01-26T13:33:37.901Z,6.97
2023-01-26T13:38:45.522Z,6.83
2023-01-26T13:44:09.091Z,6.73
2023-01-26T13:49:37.067Z,6.65
2023-01-26T13:54:46.869Z,6.55
2023-01-26T13:59:52.332Z,6.48
2023-01-26T14:04:55.629Z,6.39
2023-01-26T14:10:01.469Z,6.38
2023-01-26T14:15:07.607Z,6.38
2023-01-26T14:20:33.514Z,6.27
2023-01-26T14:25:35.339Z,6.12
2023-01-26T14:30:37.154Z,6.10
2023-01-26T14:35:46.513Z,6.08
2023-01-26T14:40:53.807Z,5.98
2023-01-26T14:46:05.881Z,5.83
2023-01-26T14:51:16.142Z,6.02
2023-01-26T14:56:28.058Z,5.93
2023-01-26T15:01:33.396Z,5.69
2023-01-26T15:06:37.350Z,5.52
2023-01-26T15:12:03.792Z,5.43
2023-01-26T15:17:09.948Z,5.40
2023-01-26T15:22:22.768Z,5.36
2023-01-26T15:27:36.572Z,5.31
2023-01-26T15:32:39.776Z,5.20
2023-01-26T15:37:41.448Z,5.04
2023-01-26T15:42:45.531Z,5.01
2023-01-26T15:47:47.253Z,4.93
2023-01-26T15:52:52.538Z,4.83
2023-01-26T15:57:54.916Z,4.92
2023-01-26T16:03:03.891Z,4.85
2023-01-26T16:08:12.066Z,4.73
2023-01-26T16:13:17.853Z,4.67
2023-01-26T16:18:22.088Z,4.48
2023-01-26T16:23:26.408Z,4.28
2023-01-26T16:28:30.719Z,4.06
2023-01-26T16:33:35.472Z,4.00
2023-01-26T16:38:39.721Z,3.88
2023-01-26T16:43:47.008Z,3.78
2023-01-26T16:48:52.823Z,3.70
2023-01-26T16:53:55.614Z,3.68
2023-01-26T16:58:57.434Z,3.58
2023-01-26T17:04:03.238Z,3.46
2023-01-26T17:09:08.896Z,3.32
2023-01-26T17:14:11.805Z,3.19
2023-01-26T17:19:16.909Z,3.15
2023-01-26T17:24:25.386Z,3.16
2023-01-26T17:29:27.115Z,3.21
2023-01-26T17:34:33.907Z,3.40
2023-01-26T17:39:37.666Z,3.58
2023-01-26T17:44:42.654Z,3.55
2023-01-26T17:49:44.350Z,3.35
2023-01-26T17:54:46.142Z,3.19
2023-01-26T17:59:52.830Z,3.16
2023-01-26T18:04:59.109Z,3.09
2023-01-26T18:10:01.147Z,3.13
2023-01-26T18:15:06.286Z,3.54
2023-01-26T18:20:08.847Z,3.27
2023-01-26T18:25:14.525Z,3.12
2023-01-26T18:30:19.069Z,3.02
2023-01-26T18:35:27.103Z,2.97
2023-01-26T18:40:35.902Z,2.84
2023-01-26T18:45:41.069Z,2.74
2023-01-26T18:50:48.778Z,2.73
2023-01-26T18:56:01.313Z,2.91
2023-01-26T19:01:09.799Z,3.10
2023-01-26T19:06:20.148Z,3.20
2023-01-26T19:11:22.105Z,3.28
2023-01-26T19:16:26.555Z,3.35
2023-01-26T19:21:33.733Z,3.41
2023-01-26T19:26:36.515Z,3.47
2023-01-26T19:31:41.447Z,3.50
2023-01-26T19:36:47.033Z,3.53
2023-01-26T19:41:50.251Z,3.55
2023-01-26T19:46:55.819Z,3.55
2023-01-26T19:52:02.291Z,3.56
2023-01-26T19:57:09.429Z,3.58
2023-01-26T20:02:14.239Z,3.61
2023-01-26T20:07:16.104Z,3.62
2023-01-26T20:12:20.521Z,3.64
2023-01-26T20:17:24.860Z,3.64
2023-01-26T20:22:33.354Z,3.63
2023-01-26T20:27:35.077Z,3.64
2023-01-26T20:32:37.026Z,3.64
2023-01-26T20:37:43.671Z,3.64
2023-01-26T20:42:48.111Z,3.64
2023-01-26T20:47:49.802Z,3.62
2023-01-26T20:52:54.950Z,3.65
2023-01-26T20:57:58.988Z,3.57
2023-01-26T21:03:03.266Z,3.50
2023-01-26T21:08:05.340Z,3.46
2023-01-26T21:13:09.473Z,3.43
2023-01-26T21:18:13.470Z,3.43
2023-01-26T21:23:18.265Z,3.42
2023-01-26T21:28:19.949Z,3.42
2023-01-26T21:33:21.731Z,3.42
2023-01-26T21:38:23.893Z,3.42
2023-01-26T21:43:28.117Z,3.42
2023-01-26T21:48:35.556Z,3.43
2023-01-26T21:53:37.231Z,3.43
2023-01-26T21:59:02.466Z,3.43
2023-01-26T22:04:09.616Z,3.46
2023-01-26T22:09:14.439Z,3.49
2023-01-26T22:14:24.977Z,3.51
2023-01-26T22:19:29.005Z,3.54
2023-01-26T22:24:35.471Z,3.56
2023-01-26T22:29:37.369Z,3.57
2023-01-26T22:34:39.006Z,3.61
2023-01-26T22:39:43.207Z,3.62
2023-01-26T22:44:49.392Z,3.61
2023-01-26T22:49:59.175Z,3.59
2023-01-26T22:55:00.902Z,3.57
2023-01-26T23:00:03.395Z,3.54
2023-01-26T23:05:08.405Z,3.54
2023-01-26T23:10:10.414Z,3.52
2023-01-26T23:15:17.250Z,3.51
2023-01-26T23:20:25.996Z,3.51
2023-01-26T23:25:47.253Z,3.52
2023-01-26T23:30:52.311Z,3.53
2023-01-26T23:35:56.971Z,3.54
2023-01-26T23:41:00.441Z,3.53
2023-01-26T23:46:04.951Z,3.54
2023-01-26T23:51:12.815Z,3.56
2023-01-26T23:56:21.841Z,3.58
